Time;durP1;ratioP1;P1;durP2;ratioP2;P2;SDS_P1;SDS_P2;PMS_P1;PMS_P2;Temp;Humidity;BMP_temperature;BMP_pressure;BME280_temperature;BME280_humidity;BME280_pressure;Samples;Min_cycle;Max_cycle;Signal;HPM_P1;HPM_P2
2022/11/05 00:10:36;;;;;;;23.67;15.20;;;;;;;8.57;86.51;94979.74;1750183;81;21058;-69
2022/11/05 00:18:35;;;;;;;24.27;15.85;;;;;;;8.74;86.31;94979.36;1761906;81;20988;-70
2022/11/05 00:21:03;;;;;;;24.65;14.78;;;;;;;8.75;85.75;94992.49;1765801;81;21023;-70
2022/11/05 00:26:15;;;;;;;27.05;16.20;;;;;;;8.69;85.98;94993.92;1692391;84;21600;-70
2022/11/05 00:28:42;;;;;;;25.02;14.75;;;;;;;8.70;85.79;94984.30;1720679;83;21032;-70
2022/11/05 00:31:12;;;;;;;23.02;14.65;;;;;;;8.63;85.63;94982.23;1723821;83;21024;-70
2022/11/05 00:33:41;;;;;;;22.30;13.93;;;;;;;8.57;85.84;94988.48;1724108;82;21059;-70
2022/11/05 00:36:10;;;;;;;21.40;14.40;;;;;;;8.50;86.01;94989.50;1722456;83;21486;-70
2022/11/05 00:38:37;;;;;;;24.18;13.35;;;;;;;8.47;86.10;94984.31;1721941;83;21026;-70
2022/11/05 00:41:03;;;;;;;18.73;12.78;;;;;;;8.44;86.03;94979.09;1724018;83;21041;-70
2022/11/05 00:46:15;;;;;;;20.88;13.53;;;;;;;8.26;86.11;94978.98;1723469;83;21034;-70
2022/11/05 00:51:27;;;;;;;20.10;13.35;;;;;;;8.29;86.23;94968.44;1721636;83;21755;-70
2022/11/05 00:53:53;;;;;;;20.70;12.30;;;;;;;8.32;86.42;94967.50;1725790;83;21555;-70
2022/11/05 00:56:20;;;;;;;18.50;12.60;;;;;;;8.29;85.93;94968.86;1721889;83;21524;-70
2022/11/05 00:58:47;;;;;;;21.95;13.60;;;;;;;8.23;85.99;94964.14;1725500;82;21046;-70
2022/11/05 01:01:14;;;;;;;23.90;14.38;;;;;;;8.23;86.37;94960.20;1725081;83;21065;-70
2022/11/05 01:03:40;;;;;;;20.50;13.48;;;;;;;8.24;86.04;94958.46;1723078;83;21017;-70
2022/11/05 01:06:16;;;;;;;21.20;14.38;;;;;;;8.28;86.53;94961.42;1723808;83;21036;-71
2022/11/05 01:08:45;;;;;;;25.55;15.35;;;;;;;8.29;86.56;94961.86;1723510;82;21102;-70
2022/11/05 01:11:33;;;;;;;23.85;16.02;;;;;;;8.30;86.48;94966.66;1727496;83;21077;-70
2022/11/05 01:14:10;;;;;;;21.62;13.65;;;;;;;8.34;87.22;94964.38;1722692;83;21070;-70
2022/11/05 01:16:38;;;;;;;20.57;13.98;;;;;;;8.38;87.18;94965.59;1725434;83;21027;-70
2022/11/05 01:19:07;;;;;;;20.30;13.53;;;;;;;8.44;87.75;94969.47;1723572;82;21058;-70
2022/11/05 01:21:35;;;;;;;25.50;14.47;;;;;;;8.47;87.03;94969.86;1698231;83;21783;-70
2022/11/05 01:24:03;;;;;;;19.23;12.85;;;;;;;8.55;87.71;94967.06;1724246;83;21609;-70
2022/11/05 01:26:30;;;;;;;19.77;12.93;;;;;;;8.54;87.08;94966.62;1722344;83;21074;-70
2022/11/05 01:29:01;;;;;;;20.08;12.47;;;;;;;8.58;87.21;94967.86;1725303;81;21085;-70
2022/11/05 01:31:28;;;;;;;18.40;11.78;;;;;;;8.59;87.54;94966.98;1726710;83;21038;-70
2022/11/05 01:33:54;;;;;;;18.17;12.35;;;;;;;8.70;87.99;94961.48;1727657;83;21026;-70
2022/11/05 01:36:21;;;;;;;18.77;12.13;;;;;;;8.75;87.45;94966.64;1721167;83;21117;-70
2022/11/05 01:38:48;;;;;;;19.65;12.40;;;;;;;8.78;87.34;94970.52;1723030;83;21054;-69
2022/11/05 01:41:14;;;;;;;21.05;12.35;;;;;;;8.81;87.86;94965.19;1722540;83;21075;-70
2022/11/05 01:43:58;;;;;;;19.55;12.03;;;;;;;8.88;87.76;94959.75;1721750;82;21000;-70
2022/11/05 01:46:35;;;;;;;17.62;11.30;;;;;;;8.95;87.76;94960.95;1722286;83;21011;-70
2022/11/05 01:49:16;;;;;;;18.98;11.83;;;;;;;8.96;87.04;94958.72;1721633;83;21054;-70
2022/11/05 01:51:44;;;;;;;21.20;10.82;;;;;;;8.85;87.20;94954.56;1726344;83;21032;-71
2022/11/05 01:54:15;;;;;;;17.10;10.75;;;;;;;8.88;87.15;94961.07;1726131;83;21130;-71
2022/11/05 01:56:47;;;;;;;17.45;10.85;;;;;;;8.81;87.43;94959.47;1722399;83;21123;-70
2022/11/05 01:59:27;;;;;;;18.42;11.05;;;;;;;8.77;87.26;94956.52;1698308;83;21537;-70
2022/11/05 02:01:55;;;;;;;18.37;11.75;;;;;;;8.82;88.14;94950.70;1725342;83;21099;-70
2022/11/05 02:04:34;;;;;;;19.12;11.95;;;;;;;8.96;88.64;94950.83;1720838;83;21095;-70
2022/11/05 02:07:02;;;;;;;19.27;11.75;;;;;;;8.98;87.70;94949.89;1723382;83;21121;-70
2022/11/05 02:09:46;;;;;;;16.80;10.58;;;;;;;8.94;87.00;94955.25;1724337;82;21039;-70
2022/11/05 02:12:14;;;;;;;16.90;11.12;;;;;;;8.85;86.79;94949.77;1708655;83;21101;-70
2022/11/05 02:14:41;;;;;;;19.30;10.78;;;;;;;8.90;87.90;94946.58;1727539;83;21087;-70
2022/11/05 02:17:19;;;;;;;17.95;11.28;;;;;;;8.92;87.39;94949.16;1728078;83;21022;-70
2022/11/05 02:20:06;;;;;;;16.65;11.30;;;;;;;8.90;87.75;94935.20;1721074;83;21059;-70
2022/11/05 02:22:59;;;;;;;17.17;11.10;;;;;;;9.01;88.25;94932.71;1720800;83;21074;-70
2022/11/05 02:26:03;;;;;;;17.87;10.43;;;;;;;9.06;87.75;94922.08;1716034;83;21135;-70
2022/11/05 02:29:07;;;;;;;18.20;11.75;;;;;;;9.03;87.55;94917.76;1726062;82;21073;-70
2022/11/05 02:31:55;;;;;;;17.32;11.48;;;;;;;9.02;87.58;94918.67;1721485;81;21036;-70
2022/11/05 02:34:30;;;;;;;19.67;12.35;;;;;;;8.96;86.95;94923.20;1727716;81;21069;-70
2022/11/05 02:37:13;;;;;;;21.75;12.95;;;;;;;8.92;87.44;94925.05;1710762;83;21161;-70
2022/11/05 02:40:01;;;;;;;18.32;12.98;;;;;;;9.05;88.64;94917.73;1722725;83;21012;-70
2022/11/05 02:42:53;;;;;;;19.32;11.35;;;;;;;9.05;87.68;94922.55;1688006;83;21067;-70
2022/11/05 02:45:50;;;;;;;21.82;12.28;;;;;;;8.97;87.01;94927.13;1725686;83;21114;-70
2022/11/05 02:48:47;;;;;;;18.67;13.05;;;;;;;8.91;87.36;94929.88;1725980;83;21502;-70
2022/11/05 02:51:39;;;;;;;23.02;12.88;;;;;;;8.95;87.49;94930.70;1726452;83;21090;-70
2022/11/05 02:54:20;;;;;;;22.90;12.82;;;;;;;8.98;87.93;94926.67;1724691;83;21058;-70
2022/11/05 02:56:51;;;;;;;21.60;12.25;;;;;;;8.96;87.80;94929.33;1722985;82;21536;-70
2022/11/05 02:59:18;;;;;;;17.42;11.48;;;;;;;8.91;87.43;94927.25;1725075;83;21090;-70
2022/11/05 03:01:47;;;;;;;18.87;12.33;;;;;;;8.84;87.22;94918.66;1725196;83;21077;-70
2022/11/05 03:04:18;;;;;;;20.75;12.03;;;;;;;8.78;87.23;94921.86;1724306;82;21153;-70
2022/11/05 03:07:10;;;;;;;15.95;9.50;;;;;;;8.78;87.44;94931.06;1714707;81;20975;-71
2022/11/05 03:10:03;;;;;;;21.15;11.57;;;;;;;8.72;87.16;94929.44;1724359;81;21085;-71
2022/11/05 03:12:47;;;;;;;17.50;10.68;;;;;;;8.69;87.33;94924.68;1651768;83;21066;-70
2022/11/05 03:15:40;;;;;;;16.82;10.82;;;;;;;8.65;87.45;94916.01;1726518;83;21548;-70
2022/11/05 03:18:21;;;;;;;18.27;11.22;;;;;;;8.61;87.83;94917.81;1723242;83;21052;-71
2022/11/05 03:21:10;;;;;;;19.57;10.60;;;;;;;8.66;88.41;94921.21;1722294;83;21573;-71
2022/11/05 03:23:58;;;;;;;14.80;10.80;;;;;;;8.68;88.09;94912.45;1718611;83;21043;-70
2022/11/05 03:26:35;;;;;;;17.60;10.35;;;;;;;8.69;88.50;94910.22;1721572;83;21020;-70
2022/11/05 03:29:07;;;;;;;18.98;11.38;;;;;;;8.75;88.71;94912.27;1724148;83;21609;-70
2022/11/05 03:31:36;;;;;;;21.95;11.08;;;;;;;8.78;88.78;94912.20;1723671;83;21051;-70
2022/11/05 03:34:06;;;;;;;17.42;11.55;;;;;;;8.79;88.27;94914.37;1724948;83;21517;-70
2022/11/05 03:36:40;;;;;;;21.48;12.75;;;;;;;8.86;88.83;94915.97;1724031;83;21123;-70
2022/11/05 03:39:09;;;;;;;;;;;;;;;8.91;88.74;94915.41;1725554;83;21043;-70
2022/11/05 03:41:42;;;;;;;17.75;11.33;;;;;;;8.85;87.98;94929.58;1693150;84;20144;-70
2022/11/05 03:44:12;;;;;;;17.60;10.98;;;;;;;8.85;88.67;94930.89;1674161;83;21508;-70
2022/11/05 03:46:44;;;;;;;18.85;11.70;;;;;;;8.97;89.21;94930.18;1702257;83;21085;-70
2022/11/05 03:49:15;;;;;;;17.73;12.37;;;;;;;8.99;88.45;94925.76;1753971;81;21079;-70
2022/11/05 03:51:56;;;;;;;23.73;13.93;;;;;;;9.00;88.53;94930.99;1697660;84;21158;-70
2022/11/05 03:54:23;;;;;;;19.12;13.28;;;;;;;9.07;88.66;94925.12;1724545;82;21056;-71
2022/11/05 03:57:23;;;;;;;20.97;11.75;;;;;;;9.08;88.04;94919.83;1690760;85;21106;-71
2022/11/05 03:59:50;;;;;;;14.28;10.10;;;;;;;9.01;87.52;94926.14;1690278;84;21166;-70
2022/11/05 04:02:21;;;;;;;16.90;11.00;;;;;;;8.98;87.94;94936.73;1739489;81;21020;-70
2022/11/05 04:04:48;;;;;;;15.83;10.48;;;;;;;8.99;87.90;94934.97;1754146;81;21505;-71
2022/11/05 04:17:05;;;;;;;14.18;10.55;;;;;;;9.09;87.77;94941.74;1757325;81;21078;-70
2022/11/05 04:17:59;;;;;;;20.68;12.90;;;;;;;8.98;88.00;94942.45;1681640;83;21584;-70
2022/11/05 04:25:56;;;;;;;47.27;21.80;;;;;;;9.08;87.83;94934.77;1766505;81;20996;-70
2022/11/05 04:30:17;;;;;;;36.77;19.37;;;;;;;9.04;87.87;94943.16;1760418;81;21497;-70
2022/11/05 04:30:51;;;;;;;21.95;12.85;;;;;;;9.02;87.96;94935.78;1709132;83;21007;-70
2022/11/05 04:33:17;;;;;;;29.98;15.78;;;;;;;8.98;87.64;94931.47;1700064;82;21098;-70
2022/11/05 04:35:48;;;;;;;17.27;9.60;;;;;;;9.01;88.44;94926.14;1727113;82;21113;-71
2022/11/05 04:38:18;;;;;;;15.58;9.43;;;;;;;9.02;88.27;94933.57;1725009;83;21142;-70
2022/11/05 04:40:47;;;;;;;17.87;10.45;;;;;;;9.13;89.06;94932.89;1764407;81;21030;-71
2022/11/05 04:43:17;;;;;;;15.43;9.18;;;;;;;9.17;88.47;94934.56;1765331;81;21137;-70
2022/11/05 04:45:44;;;;;;;15.75;9.45;;;;;;;9.15;88.47;94935.04;1767872;81;21039;-71
2022/11/05 04:48:11;;;;;;;36.10;20.80;;;;;;;9.22;88.88;94937.05;1758332;81;21004;-70
2022/11/05 04:50:38;;;;;;;45.67;23.30;;;;;;;9.25;88.41;94939.64;1760398;81;21083;-71
2022/11/05 04:53:05;;;;;;;50.83;25.80;;;;;;;9.24;88.29;94928.67;1765350;81;21074;-70
2022/11/05 04:55:31;;;;;;;41.15;23.60;;;;;;;9.21;87.96;94936.20;1759030;81;21573;-70
2022/11/05 04:57:58;;;;;;;42.85;24.55;;;;;;;9.14;87.64;94930.66;1755063;81;21005;-69
2022/11/05 05:00:25;;;;;;;40.23;22.48;;;;;;;9.20;88.59;94929.21;1755084;81;21100;-70
2022/11/05 05:02:52;;;;;;;41.85;24.07;;;;;;;9.17;87.91;94927.98;1762336;81;21024;-70
2022/11/05 05:05:20;;;;;;;32.83;19.52;;;;;;;9.20;88.22;94925.72;1760850;81;21106;-70
2022/11/05 05:07:46;;;;;;;30.08;18.82;;;;;;;9.15;87.62;94917.93;1760639;81;21035;-70
2022/11/05 05:10:13;;;;;;;23.27;17.20;;;;;;;9.17;88.03;94916.56;1767656;80;21047;-70
2022/11/05 05:12:40;;;;;;;19.40;12.18;;;;;;;9.12;87.92;94919.75;1732960;81;21565;-69
2022/11/05 05:15:08;;;;;;;38.85;23.52;;;;;;;9.07;88.25;94922.06;1723069;81;21036;-71
2022/11/05 05:17:34;;;;;;;30.30;17.77;;;;;;;9.02;88.53;94924.36;1721296;82;21511;-70
2022/11/05 05:22:54;;;;;;;19.98;12.37;;;;;;;8.95;88.28;94914.45;1704008;82;20999;-70
2022/11/05 05:25:22;;;;;;;17.70;11.08;;;;;;;8.96;88.54;94920.57;1740608;81;21043;-70
2022/11/05 05:27:48;;;;;;;18.15;11.45;;;;;;;8.96;88.33;94928.01;1764289;81;21094;-70
2022/11/05 05:30:15;;;;;;;30.52;17.80;;;;;;;8.97;88.38;94923.18;1762267;81;21000;-70
2022/11/05 05:32:42;;;;;;;35.58;23.83;;;;;;;8.99;88.45;94923.13;1759944;81;21146;-70
2022/11/05 05:35:09;;;;;;;34.08;22.73;;;;;;;8.98;88.35;94927.98;1762674;81;21055;-70
2022/11/05 05:37:36;;;;;;;35.15;22.05;;;;;;;8.95;88.30;94928.06;1763962;81;21003;-70
2022/11/05 05:40:04;;;;;;;23.55;15.45;;;;;;;8.91;88.29;94923.30;1754705;79;21035;-69
2022/11/05 05:42:31;;;;;;;14.58;9.83;;;;;;;8.89;88.44;94932.98;1760175;81;21533;-70
2022/11/05 05:44:58;;;;;;;16.57;11.05;;;;;;;8.87;88.25;94942.25;1757290;81;21502;-70
2022/11/05 05:47:24;;;;;;;21.17;11.95;;;;;;;8.90;88.90;94940.00;1756328;81;21012;-70
2022/11/05 05:49:51;;;;;;;21.05;13.48;;;;;;;8.92;88.66;94950.05;1754604;81;21008;-70
2022/11/05 05:52:18;;;;;;;24.43;14.07;;;;;;;8.91;88.80;94950.06;1756239;81;21059;-71
2022/11/05 05:54:45;;;;;;;32.45;16.32;;;;;;;8.95;88.77;94966.22;1754092;81;21059;-70
2022/11/05 05:57:11;;;;;;;29.55;18.32;;;;;;;8.96;88.47;94979.77;1754597;81;21035;-70
2022/11/05 05:59:38;;;;;;;29.32;17.92;;;;;;;8.99;88.44;94978.37;1754345;81;21012;-70
2022/11/05 06:02:04;;;;;;;28.30;16.82;;;;;;;9.06;88.40;94984.78;1758791;81;21501;-70
2022/11/05 06:04:31;;;;;;;31.93;17.85;;;;;;;9.12;87.55;94983.77;1754718;81;21154;-70
2022/11/05 06:06:58;;;;;;;29.72;16.55;;;;;;;9.18;87.64;94988.92;1764033;80;21026;-72
2022/11/05 06:09:25;;;;;;;21.82;12.13;;;;;;;9.21;87.47;94996.73;1763968;81;20972;-71
2022/11/05 06:11:51;;;;;;;20.52;11.55;;;;;;;9.26;87.52;94996.64;1759207;81;21031;-70
2022/11/05 06:14:18;;;;;;;18.45;11.12;;;;;;;9.30;87.88;94996.53;1759202;81;21016;-70
2022/11/05 06:16:44;;;;;;;22.87;13.48;;;;;;;9.34;87.68;95006.98;1760407;81;21506;-70
2022/11/05 06:19:11;;;;;;;23.22;13.13;;;;;;;9.34;87.56;95009.16;1763746;81;21035;-70
2022/11/05 06:21:38;;;;;;;31.55;19.80;;;;;;;9.31;87.26;95011.88;1762251;79;21018;-70
2022/11/05 06:24:06;;;;;;;35.17;22.98;;;;;;;9.19;87.40;95023.54;1762977;81;21083;-70
2022/11/05 06:26:32;;;;;;;25.75;14.07;;;;;;;9.19;87.63;95023.99;1765994;81;21015;-70
2022/11/05 06:28:59;;;;;;;27.67;14.33;;;;;;;9.19;87.64;95026.63;1766020;81;20987;-70
2022/11/05 06:31:25;;;;;;;33.88;18.82;;;;;;;9.21;87.60;95032.27;1768549;81;21011;-70
2022/11/05 06:33:52;;;;;;;25.27;15.20;;;;;;;9.22;87.71;95023.92;1762701;81;21593;-70
2022/11/05 06:36:19;;;;;;;24.65;14.85;;;;;;;9.29;88.17;95027.69;1758367;81;21113;-70
2022/11/05 06:38:46;;;;;;;27.60;16.15;;;;;;;9.32;88.12;95028.08;1760269;81;21130;-70
2022/11/05 06:41:13;;;;;;;27.60;15.98;;;;;;;9.44;88.92;95030.88;1753198;81;21150;-70
2022/11/05 06:43:40;;;;;;;25.20;15.00;;;;;;;9.53;88.50;95031.54;1754559;81;21052;-71
2022/11/05 06:46:09;;;;;;;22.30;15.20;;;;;;;9.48;87.43;95036.51;1763380;81;21039;-70
2022/11/05 06:48:37;;;;;;;25.97;15.90;;;;;;;9.43;87.45;95037.92;1763425;81;21078;-70
2022/11/05 06:51:06;;;;;;;26.82;16.52;;;;;;;9.43;87.77;95040.56;1766838;81;20999;-71
2022/11/05 06:53:34;;;;;;;21.82;14.30;;;;;;;9.44;87.68;95037.02;1760901;80;21035;-70
2022/11/05 06:56:04;;;;;;;26.93;15.08;;;;;;;9.43;87.82;95032.66;1765250;81;21138;-70
2022/11/05 06:58:31;;;;;;;47.67;33.95;;;;;;;9.51;88.38;95029.84;1725000;81;21537;-70
2022/11/05 07:01:03;;;;;;;77.40;53.20;;;;;;;9.52;87.83;95030.25;1725564;81;21500;-70
2022/11/05 07:03:30;;;;;;;45.30;31.07;;;;;;;9.60;88.25;95033.59;1695913;84;21006;-70
2022/11/05 07:05:59;;;;;;;69.17;51.65;;;;;;;9.65;87.82;95040.93;1739363;82;21107;-70
2022/11/05 07:08:32;;;;;;;40.67;26.25;;;;;;;9.62;87.79;95044.06;1764284;81;20996;-70
2022/11/05 07:10:59;;;;;;;36.85;22.37;;;;;;;9.64;87.98;95037.86;1763901;81;21066;-70
2022/11/05 07:13:26;;;;;;;32.85;21.48;;;;;;;9.65;87.92;95042.67;1763861;81;21597;-70
2022/11/05 07:15:53;;;;;;;36.50;24.43;;;;;;;9.68;88.10;95038.22;1762776;81;21003;-70
2022/11/05 07:18:20;;;;;;;47.00;27.70;;;;;;;9.73;87.67;95046.02;1764569;81;21054;-70
2022/11/05 07:20:48;;;;;;;36.05;23.67;;;;;;;9.70;87.29;95048.27;1765634;81;21036;-71
2022/11/05 07:23:16;;;;;;;39.45;25.60;;;;;;;9.67;87.11;95050.09;1763717;81;21031;-71
2022/11/05 07:25:42;;;;;;;56.85;37.78;;;;;;;9.66;87.28;95041.79;1762903;81;21505;-70
2022/11/05 07:28:10;;;;;;;52.58;35.38;;;;;;;9.70;87.63;95044.31;1760746;79;21032;-71
2022/11/05 07:30:36;;;;;;;51.33;31.05;;;;;;;9.77;87.77;95042.84;1755973;81;21562;-70
2022/11/05 07:33:04;;;;;;;76.40;36.90;;;;;;;9.74;86.29;95053.86;1757201;81;21071;-71
2022/11/05 07:35:30;;;;;;;69.32;35.08;;;;;;;9.75;86.10;95053.40;1759846;81;21055;-70
2022/11/05 07:37:58;;;;;;;62.15;33.90;;;;;;;9.80;85.72;95052.84;1756300;81;21082;-70
2022/11/05 07:40:27;;;;;;;47.00;27.07;;;;;;;9.90;85.95;95057.44;1759515;81;20980;-70
2022/11/05 07:42:57;;;;;;;41.45;26.93;;;;;;;10.05;86.03;95052.23;1728491;81;21040;-70
2022/11/05 07:45:25;;;;;;;48.60;28.32;;;;;;;10.19;85.85;95055.40;1694503;83;21469;-70
2022/11/05 07:47:59;;;;;;;30.82;19.67;;;;;;;10.29;85.17;95056.92;1733948;81;21014;-70
2022/11/05 07:50:29;;;;;;;31.85;20.90;;;;;;;10.46;85.63;95063.09;1734323;82;21108;-71
2022/11/05 07:53:09;;;;;;;34.50;20.97;;;;;;;10.53;83.87;95061.13;1763178;79;21110;-70
2022/11/05 07:55:39;;;;;;;42.05;24.98;;;;;;;10.57;83.54;95053.09;1761141;81;21154;-71
2022/11/05 07:58:06;;;;;;;34.23;20.80;;;;;;;10.63;83.40;95062.61;1721012;81;21039;-71
2022/11/05 08:00:33;;;;;;;30.02;18.27;;;;;;;10.69;82.97;95065.09;1767577;81;21011;-70
2022/11/05 08:03:13;;;;;;;30.92;18.62;;;;;;;10.76;83.19;95057.42;1765896;81;21528;-71
2022/11/05 08:05:45;;;;;;;28.45;17.57;;;;;;;10.92;84.03;95053.89;1758837;79;21014;-71
2022/11/05 08:08:18;;;;;;;25.40;16.87;;;;;;;11.17;83.96;95050.08;1762912;81;21026;-71
2022/11/05 08:10:46;;;;;;;27.80;18.07;;;;;;;11.31;83.09;95049.66;1759451;81;21003;-71
2022/11/05 08:13:13;;;;;;;25.12;16.35;;;;;;;11.45;83.40;95055.86;1764596;81;21122;-71
2022/11/05 08:15:41;;;;;;;25.92;17.17;;;;;;;11.56;82.01;95048.45;1764312;81;21591;-71
2022/11/05 08:18:13;;;;;;;26.00;17.52;;;;;;;11.70;82.37;95055.50;1763835;81;21512;-71
2022/11/05 08:20:40;;;;;;;27.98;17.10;;;;;;;11.84;82.06;95048.47;1763687;81;21079;-71
2022/11/05 08:23:08;;;;;;;27.35;16.90;;;;;;;11.88;80.58;95054.54;1762238;81;21035;-70
2022/11/05 08:25:35;;;;;;;30.88;18.02;;;;;;;11.89;81.24;95050.54;1760283;81;21007;-71
2022/11/05 08:28:06;;;;;;;24.80;16.90;;;;;;;11.87;79.94;95052.83;1765472;81;21031;-71
2022/11/05 08:30:34;;;;;;;27.17;17.02;;;;;;;11.69;78.86;95056.42;1720395;81;21035;-71
2022/11/05 08:33:04;;;;;;;29.30;17.05;;;;;;;11.64;80.00;95060.99;1696813;84;21025;-70
2022/11/05 08:35:34;;;;;;;27.67;15.63;;;;;;;11.56;80.27;95055.52;1740599;82;21059;-70
2022/11/05 08:38:05;;;;;;;29.82;18.87;;;;;;;11.47;80.46;95061.50;1758438;81;21529;-71
2022/11/05 08:40:35;;;;;;;24.75;15.98;;;;;;;11.38;80.32;95071.02;1727223;81;21112;-71
2022/11/05 08:43:05;;;;;;;29.90;19.65;;;;;;;11.26;80.41;95078.88;1696738;84;21162;-71
2022/11/05 08:45:32;;;;;;;36.70;25.20;;;;;;;11.13;80.38;95074.84;1694437;84;21084;-71
2022/11/05 08:48:06;;;;;;;28.87;19.87;;;;;;;11.03;80.56;95070.73;1739993;81;21045;-70
2022/11/05 08:50:34;;;;;;;29.18;17.30;;;;;;;10.96;80.90;95073.13;1718454;82;21045;-71
2022/11/05 08:53:01;;;;;;;23.80;15.80;;;;;;;10.90;81.15;95068.90;1754135;81;21015;-71
2022/11/05 08:55:27;;;;;;;27.70;17.92;;;;;;;10.85;81.30;95062.03;1755943;81;21071;-71
2022/11/05 08:57:56;;;;;;;29.07;16.73;;;;;;;10.81;81.45;95074.00;1754901;81;21024;-71
2022/11/05 09:00:25;;;;;;;24.37;15.72;;;;;;;10.75;81.67;95080.74;1762010;81;21109;-71
2022/11/05 09:02:52;;;;;;;22.20;15.48;;;;;;;10.73;81.83;95090.47;1761712;81;20996;-70
2022/11/05 09:05:18;;;;;;;27.80;16.55;;;;;;;10.70;82.19;95096.30;1733074;81;21559;-70
2022/11/05 09:07:45;;;;;;;22.00;14.58;;;;;;;10.71;82.28;95091.42;1700725;84;21026;-70
2022/11/05 09:10:12;;;;;;;25.72;15.60;;;;;;;10.81;82.78;95085.02;1739654;82;21554;-71
2022/11/05 09:12:39;;;;;;;21.82;14.47;;;;;;;10.97;82.99;95086.30;1759953;81;21012;-71
2022/11/05 09:15:07;;;;;;;24.02;15.15;;;;;;;11.13;83.08;95083.22;1755078;81;21090;-71
2022/11/05 09:17:34;;;;;;;27.02;17.82;;;;;;;11.29;83.16;95071.74;1754533;81;21032;-70
2022/11/05 09:20:03;;;;;;;46.48;32.53;;;;;;;11.50;83.02;95072.43;1756894;81;21082;-70
2022/11/05 09:22:30;;;;;;;39.53;29.07;;;;;;;11.66;81.65;95072.35;1723513;82;21001;-71
2022/11/05 09:24:56;;;;;;;28.67;18.95;;;;;;;11.80;80.80;95073.72;1698917;84;21022;-71
2022/11/05 09:27:23;;;;;;;30.95;18.00;;;;;;;12.03;81.57;95069.91;1739337;81;21052;-70
2022/11/05 09:29:49;;;;;;;29.07;17.10;;;;;;;12.25;81.08;95056.84;1762013;81;21458;-70
2022/11/05 09:32:18;;;;;;;23.98;15.15;;;;;;;12.61;78.64;95039.75;1760868;81;21506;-70
2022/11/05 09:34:47;;;;;;;23.45;14.90;;;;;;;12.61;78.64;95039.75;1762461;81;21044;-71
2022/11/05 09:37:13;;;;;;;21.10;14.10;;;;;;;12.76;79.37;95045.81;1761760;80;21035;-71
2022/11/05 09:39:40;;;;;;;24.55;15.15;;;;;;;12.85;78.34;95050.80;1763555;80;21019;-71
2022/11/05 09:42:10;;;;;;;22.15;15.13;;;;;;;12.89;76.34;95054.18;1764042;81;21003;-71
2022/11/05 09:44:48;;;;;;;27.62;16.87;;;;;;;12.94;78.11;95057.06;1764308;81;21091;-71
2022/11/05 09:47:37;;;;;;;30.45;19.10;;;;;;;12.94;78.11;95057.06;1763720;81;21038;-71
2022/11/05 09:50:08;;;;;;;34.35;21.82;;;;;;;12.93;76.73;95060.64;1768156;81;21513;-71
2022/11/05 09:52:35;;;;;;;63.90;28.00;;;;;;;12.90;76.64;95058.54;1734734;81;21062;-71
2022/11/05 09:55:05;;;;;;;46.90;23.00;;;;;;;12.85;75.61;95049.47;1764264;81;21031;-71
2022/11/05 09:57:43;;;;;;;39.78;19.65;;;;;;;12.80;75.34;95037.29;1757016;81;21842;-71
2022/11/05 10:00:15;;;;;;;34.15;17.17;;;;;;;12.74;75.61;95035.27;1756275;81;21075;-71
2022/11/05 10:02:54;;;;;;;28.20;15.83;;;;;;;12.81;76.00;95049.16;1763975;81;21161;-71
2022/11/05 10:05:26;;;;;;;28.95;17.55;;;;;;;12.83;75.93;95055.27;1760317;81;20988;-71
2022/11/05 10:08:04;;;;;;;34.98;19.07;;;;;;;12.85;76.37;95052.11;1767386;81;21066;-71
2022/11/05 10:10:48;;;;;;;31.48;19.35;;;;;;;12.91;76.12;95043.08;1757447;81;21084;-71
2022/11/05 10:13:26;;;;;;;41.23;24.02;;;;;;;13.10;76.79;95028.68;1760241;81;21089;-71
2022/11/05 10:16:31;;;;;;;30.72;18.27;;;;;;;13.45;75.58;95031.34;1764537;81;21113;-71
2022/11/05 10:19:15;;;;;;;28.40;16.82;;;;;;;13.93;75.57;95028.13;1730325;81;21481;-72
2022/11/05 10:21:42;;;;;;;20.80;14.65;;;;;;;14.31;71.44;95027.01;1765626;81;21019;-72
2022/11/05 10:24:17;;;;;;;17.23;10.58;;;;;;;14.51;71.45;95019.05;1719453;81;21075;-71
2022/11/05 10:26:49;;;;;;;23.98;18.50;;;;;;;14.76;70.26;95016.22;1759899;81;20992;-72
2022/11/05 10:29:28;;;;;;;23.10;16.25;;;;;;;15.06;72.00;95019.30;1760098;81;21071;-72
2022/11/05 10:31:57;;;;;;;20.48;14.98;;;;;;;15.40;70.73;95016.45;1757800;81;20984;-72
2022/11/05 10:34:31;;;;;;;14.47;11.43;;;;;;;15.69;70.62;95021.73;1764081;81;21501;-71
2022/11/05 10:36:58;;;;;;;16.67;10.20;;;;;;;15.69;68.28;95027.05;1762160;81;20988;-71
2022/11/05 10:39:26;;;;;;;16.57;10.63;;;;;;;15.90;68.92;95023.84;1763860;81;21030;-71
2022/11/05 10:42:18;;;;;;;19.30;11.20;;;;;;;15.94;69.83;95025.88;1761627;81;21508;-71
2022/11/05 10:45:41;;;;;;;16.62;10.88;;;;;;;15.87;69.55;95029.29;1767815;80;21047;-71
2022/11/05 10:48:31;;;;;;;18.40;11.90;;;;;;;15.71;69.38;95029.17;1724494;81;21084;-71
2022/11/05 10:50:58;;;;;;;16.77;12.13;;;;;;;15.43;69.79;95030.91;1695141;84;21611;-72
2022/11/05 10:53:30;;;;;;;20.90;12.35;;;;;;;15.23;70.51;95036.30;1723044;82;21021;-72
2022/11/05 10:56:00;;;;;;;20.85;13.00;;;;;;;15.02;70.16;95048.30;1736491;82;21036;-71
2022/11/05 10:58:31;;;;;;;19.70;14.73;;;;;;;14.80;70.94;95044.86;1762043;81;21039;-72
2022/11/05 11:01:02;;;;;;;17.45;12.23;;;;;;;14.54;71.83;95040.66;1761221;80;21078;-72
2022/11/05 11:03:46;;;;;;;17.75;12.47;;;;;;;14.41;72.23;95049.58;1760457;81;21003;-72
2022/11/05 11:06:27;;;;;;;;;;;;;;;14.24;72.52;95053.81;1770526;81;21031;-71
2022/11/05 11:08:59;;;;;;;20.80;12.88;;;;;;;14.10;73.08;95058.81;1763047;80;20383;-71
2022/11/05 11:11:36;;;;;;;19.23;11.73;;;;;;;13.95;73.49;95053.67;1762273;81;21026;-71
2022/11/05 11:14:14;;;;;;;21.70;13.95;;;;;;;13.86;74.09;95060.69;1767704;81;21051;-72
2022/11/05 11:16:49;;;;;;;22.85;16.50;;;;;;;13.81;74.53;95063.98;1761600;81;21058;-71
2022/11/05 11:19:34;;;;;;;22.50;15.00;;;;;;;13.68;74.95;95062.72;1767717;81;21537;-71
2022/11/05 11:22:09;;;;;;;31.17;21.00;;;;;;;13.62;75.37;95067.80;1768106;80;20976;-71
2022/11/05 11:24:41;;;;;;;21.87;15.38;;;;;;;13.59;75.47;95066.61;1764696;81;21019;-72
2022/11/05 11:27:24;;;;;;;25.17;17.95;;;;;;;13.56;75.60;95064.94;1722792;81;21599;-71
2022/11/05 11:30:04;;;;;;;25.25;15.70;;;;;;;13.59;76.15;95061.30;1699146;84;21615;-72
2022/11/05 11:32:36;;;;;;;23.40;13.55;;;;;;;13.70;76.08;95062.20;1737648;81;20989;-71
2022/11/05 11:35:06;;;;;;;20.77;14.03;;;;;;;13.92;76.04;95056.92;1761690;81;21074;-72
2022/11/05 11:37:40;;;;;;;22.42;14.00;;;;;;;14.12;75.20;95052.13;1762619;81;21576;-72
2022/11/05 11:40:17;;;;;;;19.20;13.62;;;;;;;14.29;74.90;95053.63;1720587;81;21112;-72
2022/11/05 11:42:51;;;;;;;24.57;14.73;;;;;;;14.43;74.58;95057.88;1695283;84;21014;-72
2022/11/05 11:45:39;;;;;;;23.30;14.55;;;;;;;14.49;74.04;95050.99;1737249;82;21043;-72
2022/11/05 11:48:10;;;;;;;24.98;14.83;;;;;;;14.54;74.29;95054.82;1727686;82;21009;-72
2022/11/05 11:50:43;;;;;;;20.52;14.45;;;;;;;14.53;74.08;95045.55;1718681;82;21045;-71
2022/11/05 11:53:27;;;;;;;24.40;15.13;;;;;;;14.52;73.72;95055.31;1718452;82;21064;-71
2022/11/05 11:56:17;;;;;;;24.23;14.87;;;;;;;14.41;73.47;95052.23;1721147;81;21026;-71
2022/11/05 11:58:53;;;;;;;22.32;14.85;;;;;;;14.34;73.45;95045.02;1765902;81;21027;-71
2022/11/05 12:01:51;;;;;;;24.05;15.28;;;;;;;14.22;73.68;95052.16;1765989;81;21552;-72
2022/11/05 12:04:41;;;;;;;31.25;15.63;;;;;;;14.14;73.88;95054.27;1760626;81;21095;-71
2022/11/05 12:07:48;;;;;;;20.97;14.95;;;;;;;14.09;74.07;95062.87;1762149;81;20992;-71
2022/11/05 12:10:42;;;;;;;23.55;15.43;;;;;;;14.04;73.79;95056.43;1724426;81;21048;-71
2022/11/05 12:13:23;;;;;;;26.57;15.78;;;;;;;13.97;73.90;95057.59;1695849;84;21050;-71
2022/11/05 12:16:18;;;;;;;24.85;16.87;;;;;;;13.97;74.30;95059.78;1723724;83;21145;-72
2022/11/05 12:19:20;;;;;;;26.42;16.90;;;;;;;13.93;74.01;95066.12;1663328;83;21018;-72
2022/11/05 12:22:18;;;;;;;24.60;17.12;;;;;;;13.81;73.92;95064.84;1754124;80;21044;-72
2022/11/05 12:25:14;;;;;;;23.83;15.38;;;;;;;13.77;74.10;95069.86;1754815;81;21075;-72
2022/11/05 12:28:04;;;;;;;26.93;17.12;;;;;;;13.72;74.18;95069.17;1760022;81;21024;-71